createdAt,value
2022-11-28T00:03:40.894Z,10.87
2022-11-28T00:06:47.600Z,14.27
2022-11-28T00:09:54.235Z,5.20
2022-11-28T00:13:00.727Z,8.93
2022-11-28T00:16:07.363Z,11.47
2022-11-28T00:18:34.299Z,12.80
2022-11-28T00:21:43.857Z,11.47
2022-11-28T00:28:14.306Z,10.13
2022-11-28T00:31:20.786Z,8.33
2022-11-28T00:34:27.422Z,7.10
2022-11-28T00:37:33.766Z,11.37
2022-11-28T00:40:00.611Z,11.77
2022-11-28T00:43:07.009Z,7.97
2022-11-28T00:46:13.742Z,9.00
2022-11-28T00:49:20.128Z,12.17
2022-11-28T00:55:19.201Z,11.83
2022-11-28T00:57:55.413Z,6.67
2022-11-28T01:01:02.076Z,12.07
2022-11-28T01:04:08.592Z,6.57
2022-11-28T01:10:49.055Z,7.72
2022-11-28T01:13:55.521Z,7.90
2022-11-28T01:17:02.025Z,9.73
2022-11-28T01:23:40.919Z,7.30
2022-11-28T01:26:47.286Z,8.27
2022-11-28T01:29:42.002Z,18.77
2022-11-28T01:36:12.179Z,12.30
2022-11-28T01:39:18.541Z,11.43
2022-11-28T01:42:25.096Z,8.43
2022-11-28T01:45:14.381Z,9.53
2022-11-28T01:48:20.852Z,8.47
2022-11-28T01:51:27.193Z,12.80
2022-11-28T01:54:36.004Z,9.50
2022-11-28T01:57:42.396Z,13.87
2022-11-28T02:00:49.139Z,15.27
2022-11-28T02:03:55.538Z,6.27
2022-11-28T02:10:36.156Z,8.52
2022-11-28T02:13:28.726Z,11.37
2022-11-28T02:16:24.478Z,10.35
2022-11-28T02:19:29.849Z,10.07
2022-11-28T02:22:28.600Z,9.27
2022-11-28T02:31:20.440Z,12.73
2022-11-28T02:34:27.033Z,13.30
2022-11-28T02:37:33.398Z,9.27
2022-11-28T02:40:17.405Z,9.70
2022-11-28T02:43:19.815Z,12.90
2022-11-28T02:46:18.861Z,7.70
2022-11-28T02:49:37.351Z,6.13
2022-11-28T02:52:44.177Z,8.33
2022-11-28T02:55:50.708Z,11.47
2022-11-28T02:58:57.100Z,11.40
2022-11-28T03:02:05.951Z,6.50
2022-11-28T03:08:32.775Z,6.80
2022-11-28T03:11:38.040Z,14.37
2022-11-28T03:14:44.845Z,15.17
2022-11-28T03:17:51.645Z,12.83
2022-11-28T03:20:18.411Z,9.30
2022-11-28T03:23:04.842Z,10.20
2022-11-28T03:26:14.297Z,11.10
2022-11-28T03:29:36.251Z,10.43
2022-11-28T03:32:48.644Z,14.80
2022-11-28T03:35:54.996Z,11.60
2022-11-28T03:39:07.610Z,9.70
2022-11-28T03:42:13.997Z,10.73
2022-11-28T03:44:46.571Z,10.90
2022-11-28T03:47:13.088Z,6.47
2022-11-28T03:50:19.574Z,6.67
2022-11-28T03:52:49.648Z,14.73
2022-11-28T03:55:23.798Z,11.20
2022-11-28T03:58:09.271Z,10.10
2022-11-28T04:00:38.676Z,7.00
2022-11-28T04:03:17.853Z,8.43
2022-11-28T04:05:50.351Z,9.40
2022-11-28T04:08:21.236Z,10.57
2022-11-28T04:10:59.916Z,11.23
2022-11-28T04:13:31.658Z,8.70
2022-11-28T04:15:58.327Z,17.17
2022-11-28T04:18:30.465Z,13.97
2022-11-28T04:20:58.458Z,14.00
2022-11-28T04:23:26.855Z,10.43
2022-11-28T04:25:55.642Z,5.50
2022-11-28T04:28:24.961Z,8.30
2022-11-28T04:30:53.040Z,12.40
2022-11-28T04:33:21.979Z,7.50
2022-11-28T04:35:51.557Z,8.10
2022-11-28T04:38:58.200Z,5.97
2022-11-28T04:41:44.598Z,8.33
2022-11-28T04:48:31.215Z,8.53
2022-11-28T04:51:29.789Z,10.47
2022-11-28T04:54:16.455Z,10.27
2022-11-28T04:57:02.987Z,9.30
2022-11-28T05:00:09.578Z,8.70
2022-11-28T05:03:15.907Z,11.90
2022-11-28T05:06:22.344Z,10.63
2022-11-28T05:09:28.702Z,11.93
2022-11-28T05:16:08.898Z,9.98
2022-11-28T05:19:15.336Z,13.93
2022-11-28T05:22:21.876Z,6.97
2022-11-28T05:25:28.328Z,5.00
2022-11-28T05:28:34.722Z,11.37
2022-11-28T05:31:41.424Z,5.03
2022-11-28T05:34:47.918Z,4.47
2022-11-28T05:37:14.512Z,6.60
2022-11-28T05:43:43.634Z,5.60
2022-11-28T05:46:49.973Z,8.30
2022-11-28T05:49:56.574Z,7.70
2022-11-28T05:53:02.913Z,6.13
2022-11-28T05:56:09.531Z,7.17
2022-11-28T05:59:15.872Z,5.13
2022-11-28T06:02:23.942Z,7.80
2022-11-28T06:05:42.280Z,4.70
2022-11-28T06:08:49.583Z,4.23
2022-11-28T06:11:52.043Z,4.23
2022-11-28T06:51:31.003Z,6.50
2022-11-28T06:53:57.596Z,7.90
2022-11-28T06:56:24.173Z,5.07
2022-11-28T06:58:55.152Z,5.03
2022-11-28T07:01:24.368Z,2.63
2022-11-28T07:03:51.670Z,3.03
2022-11-28T07:06:19.591Z,6.23
2022-11-28T07:08:46.433Z,5.90
2022-11-28T07:11:14.400Z,2.50
2022-11-28T07:13:41.431Z,3.77
2022-11-28T07:16:08.748Z,8.63
2022-11-28T07:19:15.227Z,2.90
2022-11-28T07:25:45.674Z,4.90
2022-11-28T07:28:52.026Z,4.83
2022-11-28T07:31:58.495Z,4.47
2022-11-28T07:40:18.535Z,6.53
2022-11-28T07:42:45.076Z,4.47
2022-11-28T07:45:12.173Z,3.70
2022-11-28T07:47:38.775Z,8.77
2022-11-28T07:50:05.708Z,4.80
2022-11-28T07:52:32.533Z,6.43
2022-11-28T07:54:59.149Z,3.33
2022-11-28T07:57:25.644Z,5.30
2022-11-28T07:59:52.596Z,3.90
2022-11-28T08:02:19.435Z,4.03
2022-11-28T08:04:50.486Z,5.17
2022-11-28T08:07:20.067Z,4.17
2022-11-28T08:09:46.704Z,6.73
2022-11-28T08:12:13.228Z,3.87
2022-11-28T08:14:40.147Z,9.30
2022-11-28T08:17:07.123Z,4.77
2022-11-28T08:19:35.347Z,5.93
2022-11-28T08:22:02.475Z,6.07
2022-11-28T08:24:29.146Z,9.23
2022-11-28T08:26:55.673Z,4.83
2022-11-28T08:29:22.321Z,4.50
2022-11-28T08:31:48.924Z,5.07
2022-11-28T08:34:15.456Z,4.60
2022-11-28T08:36:43.662Z,5.80
2022-11-28T08:39:26.790Z,2.40
2022-11-28T08:44:20.048Z,5.23
2022-11-28T08:46:46.519Z,4.67
2022-11-28T08:49:13.336Z,5.87
2022-11-28T08:51:39.912Z,2.80
2022-11-28T08:54:06.581Z,4.07
2022-11-28T08:56:33.251Z,7.37
2022-11-28T08:58:59.805Z,5.27
2022-11-28T09:02:06.251Z,5.27
2022-11-28T09:05:12.698Z,6.50
2022-11-28T09:08:16.507Z,6.83
2022-11-28T09:10:44.240Z,5.30
2022-11-28T09:13:11.148Z,2.87
2022-11-28T09:15:41.855Z,4.70
2022-11-28T09:18:10.335Z,4.60
2022-11-28T09:21:16.752Z,6.17
2022-11-28T09:24:23.176Z,5.23
2022-11-28T09:31:03.310Z,4.68
2022-11-28T09:34:09.734Z,5.07
2022-11-28T09:37:16.398Z,5.50
2022-11-28T09:43:26.857Z,4.20
2022-11-28T09:46:33.383Z,5.63
2022-11-28T09:49:41.133Z,4.30
2022-11-28T09:52:54.342Z,4.90
2022-11-28T09:55:56.125Z,4.97
2022-11-28T09:58:52.153Z,5.53
2022-11-28T10:01:37.784Z,4.23
2022-11-28T10:04:08.355Z,2.73
2022-11-28T10:06:40.858Z,5.60
2022-11-28T10:09:15.662Z,8.57
2022-11-28T10:12:00.664Z,7.07
2022-11-28T10:14:33.685Z,6.70
2022-11-28T10:19:57.169Z,3.70
2022-11-28T10:23:12.642Z,5.77
2022-11-28T10:26:19.148Z,6.07
2022-11-28T10:29:25.575Z,6.87
2022-11-28T10:32:32.095Z,7.40
2022-11-28T10:39:01.313Z,22.00
2022-11-28T10:42:07.672Z,8.87
2022-11-28T10:45:14.525Z,5.73
2022-11-28T10:48:38.555Z,8.67
2022-11-28T10:51:19.780Z,6.00
2022-11-28T10:54:06.233Z,3.63
2022-11-28T10:56:52.679Z,6.73
2022-11-28T10:59:59.038Z,10.40
2022-11-28T11:03:04.605Z,9.83
2022-11-28T11:06:11.119Z,3.20
2022-11-28T11:09:18.063Z,6.03
2022-11-28T11:12:24.408Z,4.33
2022-11-28T11:15:33.243Z,5.97
2022-11-28T11:18:42.746Z,3.73
2022-11-28T11:25:03.659Z,4.00
2022-11-28T11:28:09.996Z,1.57
2022-11-28T11:31:16.680Z,1.53
2022-11-28T11:37:41.280Z,7.00
2022-11-28T11:40:54.015Z,3.80
2022-11-28T11:44:03.564Z,1.90
2022-11-28T11:47:10.007Z,6.67
2022-11-28T11:53:53.297Z,0.40
2022-11-28T11:57:24.906Z,0.63
2022-11-28T11:59:49.247Z,2.40
2022-11-28T12:02:21.647Z,1.47
2022-11-28T12:04:55.164Z,0.40
2022-11-28T12:07:25.906Z,3.40
2022-11-28T12:09:54.780Z,1.17
2022-11-28T12:12:26.776Z,1.40
2022-11-28T12:14:53.280Z,1.47
2022-11-28T12:17:47.817Z,0.60
2022-11-28T12:20:35.286Z,2.72
2022-11-28T12:23:11.860Z,0.60
2022-11-28T12:26:02.356Z,1.90
2022-11-28T12:28:29.106Z,0.73
2022-11-28T12:31:06.360Z,1.17
2022-11-28T12:34:05.399Z,1.17
2022-11-28T12:36:37.796Z,0.80
2022-11-28T12:39:15.085Z,2.92
2022-11-28T12:42:01.121Z,2.87
2022-11-28T12:44:48.614Z,1.30
2022-11-28T12:47:17.920Z,1.23
2022-11-28T12:49:52.946Z,0.87
2022-11-28T12:52:22.355Z,0.83
2022-11-28T12:55:07.696Z,1.43
2022-11-28T12:57:43.170Z,1.87
2022-11-28T13:00:18.339Z,1.93
2022-11-28T13:02:48.522Z,1.23
2022-11-28T13:05:15.094Z,1.23
2022-11-28T13:08:00.542Z,2.00
2022-11-28T13:10:29.217Z,2.50
2022-11-28T13:12:58.280Z,2.20
2022-11-28T13:15:24.759Z,1.93
2022-11-28T13:17:54.217Z,2.50
2022-11-28T13:20:26.942Z,2.07
2022-11-28T13:23:11.354Z,1.38
2022-11-28T13:25:44.036Z,0.97
2022-11-28T13:28:23.879Z,1.33
2022-11-28T13:30:52.864Z,2.17
2022-11-28T13:33:34.997Z,0.83
2022-11-28T13:36:02.907Z,3.40
2022-11-28T13:38:40.999Z,0.87
2022-11-28T13:42:06.009Z,2.80
2022-11-28T13:44:20.853Z,1.80
2022-11-28T13:46:47.615Z,4.03
2022-11-28T13:49:22.192Z,5.23
2022-11-28T13:51:49.185Z,3.00
2022-11-28T13:54:19.311Z,2.30
2022-11-28T13:56:46.418Z,1.63
2022-11-28T13:59:21.911Z,1.13
2022-11-28T14:01:55.437Z,2.43
2022-11-28T14:04:22.587Z,3.93
2022-11-28T14:06:59.215Z,1.40
2022-11-28T14:09:40.510Z,3.40
2022-11-28T14:12:24.338Z,5.13
2022-11-28T14:15:02.289Z,3.03
2022-11-28T14:17:57.725Z,1.93
2022-11-28T14:20:44.303Z,2.97
2022-11-28T14:23:48.938Z,1.70
2022-11-28T14:26:35.826Z,2.17
2022-11-28T14:29:42.427Z,2.80
2022-11-28T14:32:48.894Z,2.63
2022-11-28T14:35:55.323Z,3.20
2022-11-28T14:38:50.833Z,3.83
2022-11-28T14:41:57.270Z,2.73
2022-11-28T14:45:08.168Z,4.00
2022-11-28T14:48:14.791Z,3.83
2022-11-28T14:51:02.660Z,3.77
2022-11-28T14:57:41.662Z,2.83
2022-11-28T15:00:48.162Z,6.20
2022-11-28T15:03:54.742Z,5.73
2022-11-28T15:06:23.616Z,3.30
2022-11-28T15:08:50.141Z,2.77
2022-11-28T15:11:21.653Z,3.80
2022-11-28T15:14:06.817Z,3.80
2022-11-28T15:16:34.478Z,3.83
2022-11-28T15:19:27.089Z,8.10
2022-11-28T15:21:54.427Z,5.05
2022-11-28T15:24:27.645Z,4.87
2022-11-28T15:26:57.913Z,5.83
2022-11-28T15:29:28.577Z,5.03
2022-11-28T15:31:57.067Z,5.00
2022-11-28T15:34:26.157Z,3.93
2022-11-28T15:36:54.159Z,5.13
2022-11-28T15:39:41.168Z,8.60
2022-11-28T15:42:09.435Z,6.63
2022-11-28T15:44:37.764Z,6.77
2022-11-28T15:47:05.497Z,6.10
2022-11-28T15:49:33.480Z,6.80
2022-11-28T15:52:01.593Z,9.57
2022-11-28T15:54:31.217Z,8.30
2022-11-28T15:56:58.261Z,5.97
2022-11-28T15:59:24.801Z,7.53
2022-11-28T16:05:25.797Z,6.65
2022-11-28T16:07:52.404Z,7.43
2022-11-28T16:10:42.251Z,6.70
2022-11-28T16:13:51.641Z,8.93
2022-11-28T16:16:58.246Z,7.67
2022-11-28T16:23:38.082Z,10.37
2022-11-28T16:26:59.544Z,11.70
2022-11-28T16:30:06.051Z,10.57
2022-11-28T16:36:48.728Z,8.97
2022-11-28T16:39:55.138Z,12.90
2022-11-28T16:42:24.487Z,14.70
2022-11-28T16:45:30.948Z,15.97
2022-11-28T16:48:00.811Z,10.53
2022-11-28T16:50:27.615Z,15.40
2022-11-28T16:53:00.105Z,13.77
2022-11-28T16:55:29.659Z,12.52
2022-11-28T16:57:59.820Z,13.87
2022-11-28T17:00:27.350Z,15.20
2022-11-28T17:02:54.291Z,17.17
2022-11-28T17:05:20.861Z,13.37
2022-11-28T17:07:47.440Z,13.63
2022-11-28T17:10:14.445Z,12.83
2022-11-28T17:12:41.063Z,16.47
2022-11-28T17:15:12.583Z,15.70
2022-11-28T17:17:39.415Z,21.63
2022-11-28T17:20:06.534Z,17.43
2022-11-28T17:22:43.693Z,17.70
2022-11-28T17:25:18.024Z,19.40
2022-11-28T17:27:44.796Z,25.17
2022-11-28T17:30:14.837Z,34.97
2022-11-28T17:32:41.479Z,54.73
2022-11-28T17:35:16.290Z,59.33
2022-11-28T17:37:42.962Z,52.87
2022-11-28T17:40:28.143Z,45.30
2022-11-28T17:42:54.792Z,43.97
2022-11-28T17:45:22.030Z,40.53
2022-11-28T17:52:02.415Z,46.63
2022-11-28T17:55:08.752Z,47.53
2022-11-28T17:57:35.704Z,34.90
2022-11-28T18:00:42.221Z,28.67
2022-11-28T18:03:48.669Z,25.30
2022-11-28T18:06:55.096Z,28.17
2022-11-28T18:10:01.581Z,26.30
2022-11-28T18:13:07.978Z,25.97
2022-11-28T18:19:46.643Z,26.43
2022-11-28T18:22:53.182Z,26.90
2022-11-28T18:25:59.738Z,25.63
2022-11-28T18:29:06.089Z,26.60
2022-11-28T18:32:14.137Z,24.73
2022-11-28T18:35:20.490Z,29.70
2022-11-28T18:38:29.147Z,26.07
2022-11-28T18:41:35.567Z,24.37
2022-11-28T18:44:42.140Z,24.47
2022-11-28T18:47:48.508Z,26.10
2022-11-28T18:50:15.428Z,19.63
2022-11-28T18:52:41.883Z,24.23
2022-11-28T18:55:08.428Z,30.08
2022-11-28T18:57:36.083Z,36.17
2022-11-28T19:00:42.567Z,23.33
2022-11-28T19:03:49.089Z,22.07
2022-11-28T19:06:55.436Z,20.77
2022-11-28T19:10:02.062Z,22.07
2022-11-28T19:13:08.436Z,20.10
2022-11-28T19:16:15.010Z,20.57
2022-11-28T19:19:21.361Z,24.33
2022-11-28T19:22:27.807Z,22.97
2022-11-28T19:25:34.157Z,18.77
2022-11-28T19:28:20.733Z,17.83
2022-11-28T19:30:47.237Z,50.47
2022-11-28T19:33:13.819Z,42.17
2022-11-28T19:35:40.598Z,39.80
2022-11-28T19:38:07.074Z,18.20
2022-11-28T19:40:33.622Z,23.73
2022-11-28T19:43:00.322Z,23.57
2022-11-28T19:45:26.872Z,15.87
2022-11-28T19:47:53.549Z,16.10
2022-11-28T19:50:20.458Z,18.00
2022-11-28T19:52:46.986Z,18.07
2022-11-28T19:55:53.417Z,17.27
2022-11-28T19:58:19.878Z,15.77
2022-11-28T20:00:48.774Z,17.13
2022-11-28T20:03:15.336Z,17.30
2022-11-28T20:06:21.694Z,19.30
2022-11-28T20:13:01.747Z,23.65
2022-11-28T20:16:08.142Z,23.50
2022-11-28T20:18:38.360Z,20.60
2022-11-28T20:21:44.844Z,22.17
2022-11-28T20:24:51.187Z,23.53
2022-11-28T20:27:57.658Z,25.10
2022-11-28T20:31:04.024Z,28.67
2022-11-28T20:34:10.573Z,24.03
2022-11-28T20:37:16.942Z,20.77
2022-11-28T20:40:23.445Z,18.97
2022-11-28T20:46:15.316Z,20.20
2022-11-28T20:49:05.973Z,25.77
2022-11-28T20:51:33.469Z,20.40
2022-11-28T20:54:00.691Z,26.07
2022-11-28T20:56:32.021Z,22.33
2022-11-28T20:59:00.876Z,23.13
2022-11-28T21:01:33.249Z,26.03
2022-11-28T21:04:00.299Z,28.25
2022-11-28T21:06:27.180Z,24.27
2022-11-28T21:08:53.633Z,27.87
2022-11-28T21:11:50.158Z,30.77
2022-11-28T21:14:48.038Z,22.50
2022-11-28T21:17:54.375Z,26.13
2022-11-28T21:21:00.981Z,26.23
2022-11-28T21:24:07.335Z,23.63
2022-11-28T21:27:14.232Z,30.07
2022-11-28T21:29:40.732Z,31.87
2022-11-28T21:32:47.458Z,33.07
2022-11-28T21:35:13.923Z,29.20
2022-11-28T21:37:40.514Z,45.57
2022-11-28T21:40:08.071Z,59.07
2022-11-28T21:42:36.370Z,40.03
2022-11-28T21:45:02.957Z,25.43
2022-11-28T21:47:29.516Z,28.33
2022-11-28T21:50:35.867Z,19.77
2022-11-28T21:53:02.410Z,22.27
2022-11-28T21:55:53.329Z,24.43
2022-11-28T21:58:25.116Z,20.73
2022-11-28T22:01:18.544Z,20.57
2022-11-28T22:03:45.522Z,21.77
2022-11-28T22:06:38.135Z,23.40
2022-11-28T22:13:18.370Z,25.05
2022-11-28T22:16:24.860Z,23.10
2022-11-28T22:19:31.319Z,22.27
2022-11-28T22:21:58.039Z,23.97
2022-11-28T22:24:24.683Z,26.03
2022-11-28T22:26:51.385Z,29.93
2022-11-28T22:29:18.154Z,30.40
2022-11-28T22:31:44.683Z,28.03
2022-11-28T22:34:12.277Z,29.40
2022-11-28T22:36:38.825Z,31.97
2022-11-28T22:39:06.245Z,29.10
2022-11-28T22:41:32.808Z,33.47
2022-11-28T22:44:00.883Z,27.80
2022-11-28T22:46:27.923Z,29.73
2022-11-28T22:48:54.585Z,27.70
2022-11-28T22:51:22.443Z,34.27
2022-11-28T22:53:52.352Z,28.50
2022-11-28T22:56:18.870Z,24.10
2022-11-28T22:58:45.556Z,25.13
2022-11-28T23:01:17.374Z,24.80
2022-11-28T23:03:44.727Z,29.87
2022-11-28T23:06:13.244Z,24.13
2022-11-28T23:08:39.814Z,30.23
2022-11-28T23:11:07.352Z,22.03
2022-11-28T23:13:35.096Z,24.17
2022-11-28T23:16:08.654Z,21.70
2022-11-28T23:18:35.281Z,21.83
2022-11-28T23:21:01.844Z,24.07
2022-11-28T23:23:30.362Z,21.67
2022-11-28T23:25:57.045Z,20.13
2022-11-28T23:28:23.494Z,26.43
2022-11-28T23:30:50.154Z,22.83
2022-11-28T23:33:16.774Z,22.93
2022-11-28T23:35:43.241Z,20.70
2022-11-28T23:38:10.038Z,23.87
2022-11-28T23:40:36.521Z,20.33
2022-11-28T23:43:05.526Z,18.50
2022-11-28T23:45:32.289Z,24.27
2022-11-28T23:47:58.972Z,18.77
2022-11-28T23:50:25.611Z,19.13
2022-11-28T23:52:52.341Z,19.00
2022-11-28T23:55:58.763Z,22.67
2022-11-28T23:58:25.383Z,16.73
